Time,TemperatureF,DewpointF,PressureIn,WindDirection,WindDirectionDegrees,WindSpeedMPH,WindSpeedGustMPH,Humidity,HourlyPrecipIn,Conditions,Clouds,dailyrainin,SoftwareType,DateUTC
2013-04-16 00:00:00,40.6,38.5,29.94,WSW,251,5.0,6.0,92,0.00,,,0.00,Wunderground v.1.15,2013-04-16 05:00:00,
2013-04-16 00:05:00,40.5,38.4,29.93,WSW,241,4.0,4.0,92,0.00,,,0.00,Wunderground v.1.15,2013-04-16 05:05:00,
2013-04-16 00:11:00,40.4,38.3,29.93,WSW,245,5.0,5.0,92,0.00,,,0.00,Wunderground v.1.15,2013-04-16 05:11:00,
2013-04-16 00:16:00,40.3,38.2,29.94,WSW,256,3.0,7.0,92,0.00,,,0.00,Wunderground v.1.15,2013-04-16 05:16:00,
2013-04-16 00:22:00,40.2,38.1,29.93,WSW,252,3.0,5.0,92,0.00,,,0.00,Wunderground v.1.15,2013-04-16 05:22:00,
2013-04-16 00:27:00,40.2,38.1,29.94,WSW,249,3.0,5.0,92,0.00,,,0.00,Wunderground v.1.15,2013-04-16 05:27:00,
2013-04-16 00:33:00,40.1,38.0,29.95,SW,225,5.0,5.0,92,0.00,,,0.00,Wunderground v.1.15,2013-04-16 05:33:00,
2013-04-16 00:39:00,40.1,38.0,29.95,West,266,4.0,6.0,92,0.00,,,0.00,Wunderground v.1.15,2013-04-16 05:39:00,
2013-04-16 00:44:00,40.1,38.0,29.95,WSW,256,4.0,5.0,92,0.00,,,0.00,Wunderground v.1.15,2013-04-16 05:44:00,
2013-04-16 00:50:00,40.0,38.0,29.94,WSW,257,5.0,8.0,92,0.00,,,0.00,weatherlink.com 1.10,2013-04-16 05:50:00,
2013-04-16 00:55:00,39.9,37.8,29.94,WSW,254,4.0,5.0,92,0.00,,,0.00,Wunderground v.1.15,2013-04-16 05:55:00,
2013-04-16 01:00:00,39.8,37.7,29.94,West,263,4.0,5.0,92,0.00,,,0.00,Wunderground v.1.15,2013-04-16 06:00:00,
2013-04-16 01:06:00,39.6,37.5,29.94,WSW,251,2.0,4.0,92,0.00,,,0.00,Wunderground v.1.15,2013-04-16 06:06:00,
2013-04-16 01:12:00,39.2,37.1,29.94,West,268,3.0,3.0,92,0.00,,,0.00,Wunderground v.1.15,2013-04-16 06:12:00,
2013-04-16 01:18:00,38.9,36.8,29.94,West,273,2.0,3.0,92,0.00,,,0.00,Wunderground v.1.15,2013-04-16 06:18:00,
2013-04-16 01:24:00,38.7,36.6,29.94,West,276,1.0,3.0,92,0.00,,,0.00,Wunderground v.1.15,2013-04-16 06:24:00,
2013-04-16 01:30:00,38.4,36.3,29.94,WSW,255,2.0,3.0,92,0.00,,,0.00,Wunderground v.1.15,2013-04-16 06:30:00,
2013-04-16 01:35:00,38.1,36.0,29.94,WSW,253,1.0,2.0,92,0.00,,,0.00,Wunderground v.1.15,2013-04-16 06:35:00,
2013-04-16 01:41:00,37.6,35.8,29.94,West,270,0.0,2.0,93,0.00,,,0.00,Wunderground v.1.15,2013-04-16 06:41:00,
2013-04-16 01:47:00,37.8,36.2,29.94,West,264,2.0,2.0,94,0.00,,,0.00,Wunderground v.1.15,2013-04-16 06:47:00,
2013-04-16 01:52:00,37.7,35.9,29.94,WSW,246,2.0,2.0,93,0.00,,,0.00,Wunderground v.1.15,2013-04-16 06:52:00,
2013-04-16 01:58:00,37.2,35.4,29.94,WSW,257,2.0,2.0,93,0.00,,,0.00,Wunderground v.1.15,2013-04-16 06:58:00,
2013-04-16 02:03:00,36.9,35.1,29.94,West,267,1.0,1.0,93,0.00,,,0.00,Wunderground v.1.15,2013-04-16 07:03:00,
2013-04-16 02:08:00,36.9,35.3,29.94,West,269,0.0,2.0,94,0.00,,,0.00,Wunderground v.1.15,2013-04-16 07:08:00,
2013-04-16 02:13:00,36.9,35.3,29.94,West,263,1.0,2.0,94,0.00,,,0.00,Wunderground v.1.15,2013-04-16 07:13:00,
2013-04-16 02:18:00,37.2,35.9,29.94,West,270,1.0,4.0,95,0.00,,,0.00,Wunderground v.1.15,2013-04-16 07:18:00,
2013-04-16 02:23:00,37.3,35.7,29.94,West,266,2.0,2.0,94,0.00,,,0.00,Wunderground v.1.15,2013-04-16 07:23:00,
2013-04-16 02:28:00,37.3,35.7,29.95,West,260,2.0,3.0,94,0.00,,,0.00,Wunderground v.1.15,2013-04-16 07:28:00,
2013-04-16 02:33:00,36.9,35.3,29.95,WSW,253,1.0,2.0,94,0.00,,,0.00,Wunderground v.1.15,2013-04-16 07:33:00,
2013-04-16 02:38:00,36.5,34.9,29.96,West,266,1.0,2.0,94,0.00,,,0.00,Wunderground v.1.15,2013-04-16 07:38:00,
2013-04-16 02:43:00,36.5,34.9,29.96,West,259,1.0,2.0,94,0.00,,,0.00,Wunderground v.1.15,2013-04-16 07:43:00,
2013-04-16 02:48:00,36.4,34.8,29.96,West,262,1.0,3.0,94,0.00,,,0.00,Wunderground v.1.15,2013-04-16 07:48:00,
2013-04-16 02:53:00,36.2,34.6,29.97,WSW,255,2.0,2.0,94,0.00,,,0.00,Wunderground v.1.15,2013-04-16 07:53:00,
2013-04-16 02:58:00,36.0,34.4,29.96,West,271,1.0,4.0,94,0.00,,,0.00,Wunderground v.1.15,2013-04-16 07:58:00,
2013-04-16 03:03:00,36.0,34.4,29.96,West,259,0.0,2.0,94,0.00,,,0.00,Wunderground v.1.15,2013-04-16 08:03:00,
2013-04-16 03:08:00,36.3,34.7,29.96,West,259,1.0,4.0,94,0.00,,,0.00,Wunderground v.1.15,2013-04-16 08:08:00,
2013-04-16 03:13:00,36.3,34.7,29.97,West,263,0.0,2.0,94,0.00,,,0.00,Wunderground v.1.15,2013-04-16 08:13:00,
2013-04-16 03:18:00,35.9,34.1,29.97,West,263,0.0,2.0,93,0.00,,,0.00,Wunderground v.1.15,2013-04-16 08:18:00,
2013-04-16 03:23:00,35.5,33.7,29.97,West,263,0.0,0.0,93,0.00,,,0.00,Wunderground v.1.15,2013-04-16 08:23:00,
2013-04-16 03:28:00,35.5,33.9,29.98,West,271,1.0,2.0,94,0.00,,,0.00,Wunderground v.1.15,2013-04-16 08:28:00,
2013-04-16 03:33:00,35.7,34.1,29.98,WSW,243,0.0,1.0,94,0.00,,,0.00,Wunderground v.1.15,2013-04-16 08:33:00,
2013-04-16 03:38:00,35.7,34.1,29.98,West,276,0.0,3.0,94,0.00,,,0.00,Wunderground v.1.15,2013-04-16 08:38:00,
2013-04-16 03:43:00,35.7,33.9,29.98,West,277,0.0,1.0,93,0.00,,,0.00,Wunderground v.1.15,2013-04-16 08:43:00,
2013-04-16 03:48:00,35.4,33.3,29.99,West,277,0.0,1.0,92,0.00,,,0.00,Wunderground v.1.15,2013-04-16 08:48:00,
2013-04-16 03:53:00,35.0,32.9,29.99,West,276,0.0,0.0,92,0.00,,,0.00,Wunderground v.1.15,2013-04-16 08:53:00,
2013-04-16 03:58:00,34.5,32.4,29.99,West,277,0.0,0.0,92,0.00,,,0.00,Wunderground v.1.15,2013-04-16 08:58:00,
2013-04-16 04:03:00,34.3,32.5,29.99,West,277,0.0,0.0,93,0.00,,,0.00,Wunderground v.1.15,2013-04-16 09:03:00,
2013-04-16 04:08:00,33.9,31.8,29.99,West,277,0.0,0.0,92,0.00,,,0.00,Wunderground v.1.15,2013-04-16 09:08:00,
2013-04-16 04:13:00,33.6,31.8,29.99,West,276,0.0,0.0,93,0.00,,,0.00,Wunderground v.1.15,2013-04-16 09:13:00,
2013-04-16 04:18:00,33.5,31.7,30.00,West,276,0.0,0.0,93,0.00,,,0.00,Wunderground v.1.15,2013-04-16 09:18:00,
2013-04-16 04:23:00,33.7,32.2,30.00,West,277,0.0,0.0,94,0.00,,,0.00,Wunderground v.1.15,2013-04-16 09:23:00,
2013-04-16 04:28:00,33.9,32.4,30.00,West,276,0.0,0.0,94,0.00,,,0.00,Wunderground v.1.15,2013-04-16 09:28:00,
2013-04-16 04:33:00,33.6,31.8,30.00,West,277,0.0,0.0,93,0.00,,,0.00,Wunderground v.1.15,2013-04-16 09:33:00,
2013-04-16 04:38:00,32.9,30.8,30.00,West,277,0.0,0.0,92,0.00,,,0.00,Wunderground v.1.15,2013-04-16 09:38:00,
2013-04-16 04:43:00,32.6,30.8,30.01,West,276,0.0,0.0,93,0.00,,,0.00,Wunderground v.1.15,2013-04-16 09:43:00,
2013-04-16 04:48:00,32.5,31.0,30.01,West,277,0.0,0.0,94,0.00,,,0.00,Wunderground v.1.15,2013-04-16 09:48:00,
2013-04-16 04:54:00,32.2,30.4,30.01,West,277,0.0,0.0,93,0.00,,,0.00,Wunderground v.1.15,2013-04-16 09:54:00,
2013-04-16 04:59:00,32.1,30.6,30.01,West,277,0.0,0.0,94,0.00,,,0.00,Wunderground v.1.15,2013-04-16 09:59:00,
2013-04-16 05:04:00,31.8,30.3,30.01,West,276,0.0,0.0,94,0.00,,,0.00,Wunderground v.1.15,2013-04-16 10:04:00,
2013-04-16 05:09:00,31.9,30.4,30.01,West,277,0.0,0.0,94,0.00,,,0.00,Wunderground v.1.15,2013-04-16 10:09:00,
2013-04-16 05:14:00,32.0,30.5,30.01,West,277,0.0,0.0,94,0.00,,,0.00,Wunderground v.1.15,2013-04-16 10:14:00,
2013-04-16 05:19:00,32.0,30.5,30.01,West,276,0.0,0.0,94,0.00,,,0.00,Wunderground v.1.15,2013-04-16 10:19:00,
2013-04-16 05:24:00,31.9,30.4,30.01,West,278,0.0,0.0,94,0.00,,,0.00,Wunderground v.1.15,2013-04-16 10:24:00,
2013-04-16 05:29:00,31.7,30.2,30.01,West,277,0.0,0.0,94,0.00,,,0.00,Wunderground v.1.15,2013-04-16 10:29:00,
2013-04-16 05:34:00,31.5,30.0,30.01,West,278,0.0,0.0,94,0.00,,,0.00,Wunderground v.1.15,2013-04-16 10:34:00,
2013-04-16 05:39:00,31.3,29.8,30.01,West,276,0.0,0.0,94,0.00,,,0.00,Wunderground v.1.15,2013-04-16 10:39:00,
2013-04-16 05:44:00,31.4,30.1,30.02,West,278,0.0,0.0,95,0.00,,,0.00,Wunderground v.1.15,2013-04-16 10:44:00,
2013-04-16 05:49:00,31.2,29.7,30.01,West,278,0.0,0.0,94,0.00,,,0.00,Wunderground v.1.15,2013-04-16 10:49:00,
2013-04-16 05:54:00,31.0,29.5,30.02,West,276,0.0,0.0,94,0.00,,,0.00,Wunderground v.1.15,2013-04-16 10:54:00,
2013-04-16 05:59:00,30.9,29.4,30.02,West,278,0.0,0.0,94,0.00,,,0.00,Wunderground v.1.15,2013-04-16 10:59:00,
2013-04-16 06:04:00,31.0,29.7,30.02,West,259,0.0,0.0,95,0.00,,,0.00,Wunderground v.1.15,2013-04-16 11:04:00,
2013-04-16 06:09:00,31.4,30.1,30.03,West,263,1.0,3.0,95,0.00,,,0.00,Wunderground v.1.15,2013-04-16 11:09:00,
2013-04-16 06:14:00,32.0,30.7,30.03,West,260,2.0,4.0,95,0.00,,,0.00,Wunderground v.1.15,2013-04-16 11:14:00,
2013-04-16 06:19:00,32.3,31.0,30.04,WNW,291,1.0,4.0,95,0.00,,,0.00,Wunderground v.1.15,2013-04-16 11:19:00,
2013-04-16 06:24:00,32.6,30.8,30.04,NW,304,2.0,3.0,93,0.00,,,0.00,Wunderground v.1.15,2013-04-16 11:24:00,
2013-04-16 06:29:00,32.8,30.7,30.03,WSW,240,2.0,4.0,92,0.00,,,0.00,Wunderground v.1.15,2013-04-16 11:29:00,
2013-04-16 06:34:00,32.9,30.6,30.03,West,262,0.0,4.0,91,0.00,,,0.00,Wunderground v.1.15,2013-04-16 11:34:00,
2013-04-16 06:39:00,33.0,30.4,30.04,WSW,244,3.0,4.0,90,0.00,,,0.00,Wunderground v.1.15,2013-04-16 11:39:00,
2013-04-16 06:44:00,32.9,30.0,30.05,West,262,2.0,3.0,89,0.00,,,0.00,Wunderground v.1.15,2013-04-16 11:44:00,
2013-04-16 06:49:00,32.8,30.2,30.05,WSW,253,2.0,3.0,90,0.00,,,0.00,Wunderground v.1.15,2013-04-16 11:49:00,
2013-04-16 06:54:00,33.2,30.6,30.04,West,274,2.0,2.0,90,0.00,,,0.00,Wunderground v.1.15,2013-04-16 11:54:00,
2013-04-16 06:59:00,33.8,30.6,30.05,WSW,256,2.0,3.0,88,0.00,,,0.00,Wunderground v.1.15,2013-04-16 11:59:00,
2013-04-16 07:04:00,34.1,30.9,30.06,West,270,3.0,3.0,88,0.00,,,0.00,Wunderground v.1.15,2013-04-16 12:04:00,
2013-04-16 07:09:00,34.5,31.0,30.06,West,268,2.0,4.0,87,0.00,,,0.00,Wunderground v.1.15,2013-04-16 12:09:00,
2013-04-16 07:14:00,34.7,31.2,30.06,WSW,238,5.0,5.0,87,0.00,,,0.00,Wunderground v.1.15,2013-04-16 12:14:00,
2013-04-16 07:19:00,35.0,31.2,30.06,West,263,4.0,5.0,86,0.00,,,0.00,Wunderground v.1.15,2013-04-16 12:19:00,
2013-04-16 07:24:00,35.2,31.1,30.06,West,263,3.0,5.0,85,0.00,,,0.00,Wunderground v.1.15,2013-04-16 12:24:00,
2013-04-16 07:29:00,35.5,31.4,30.07,WSW,255,4.0,5.0,85,0.00,,,0.00,Wunderground v.1.15,2013-04-16 12:29:00,
2013-04-16 07:34:00,35.8,31.7,30.07,West,259,5.0,7.0,85,0.00,,,0.00,Wunderground v.1.15,2013-04-16 12:34:00,
2013-04-16 07:39:00,36.2,31.8,30.08,WNW,282,5.0,7.0,84,0.00,,,0.00,Wunderground v.1.15,2013-04-16 12:39:00,
2013-04-16 07:44:00,36.5,32.1,30.09,West,267,4.0,6.0,84,0.00,,,0.01,Wunderground v.1.15,2013-04-16 12:44:00,
2013-04-16 07:49:00,36.5,31.5,30.09,WSW,256,8.0,9.0,82,0.00,,,0.01,Wunderground v.1.15,2013-04-16 12:49:00,
2013-04-16 07:55:00,36.3,31.3,30.09,West,267,5.0,9.0,82,0.00,,,0.01,Wunderground v.1.15,2013-04-16 12:55:00,
2013-04-16 08:00:00,36.7,31.7,30.09,West,264,3.0,9.0,82,0.00,,,0.01,Wunderground v.1.15,2013-04-16 13:00:00,
2013-04-16 08:05:00,37.3,32.3,30.08,West,278,3.0,6.0,82,0.00,,,0.01,Wunderground v.1.15,2013-04-16 13:05:00,
2013-04-16 08:10:00,37.7,32.1,30.09,WNW,285,2.0,10.0,80,0.00,,,0.01,Wunderground v.1.15,2013-04-16 13:10:00,
2013-04-16 08:15:00,37.9,32.0,30.09,West,264,7.0,14.0,79,0.00,,,0.01,Wunderground v.1.15,2013-04-16 13:15:00,
2013-04-16 08:20:00,38.2,32.3,30.09,WNW,295,3.0,14.0,79,0.00,,,0.01,Wunderground v.1.15,2013-04-16 13:20:00,
2013-04-16 08:25:00,38.6,33.0,30.10,West,270,6.0,11.0,80,0.00,,,0.01,Wunderground v.1.15,2013-04-16 13:25:00,
2013-04-16 08:30:00,38.9,33.3,30.10,West,266,8.0,13.0,80,0.00,,,0.01,Wunderground v.1.15,2013-04-16 13:30:00,
2013-04-16 08:35:00,39.0,32.4,30.11,West,274,7.0,11.0,77,0.00,,,0.01,Wunderground v.1.15,2013-04-16 13:35:00,
2013-04-16 08:40:00,39.2,33.2,30.11,WNW,293,2.0,15.0,79,0.00,,,0.01,Wunderground v.1.15,2013-04-16 13:40:00,
2013-04-16 08:45:00,39.2,32.3,30.11,WNW,290,5.0,10.0,76,0.00,,,0.01,Wunderground v.1.15,2013-04-16 13:45:00,
2013-04-16 08:50:00,39.4,32.8,30.11,WNW,297,4.0,10.0,77,0.00,,,0.01,Wunderground v.1.15,2013-04-16 13:50:00,
2013-04-16 08:55:00,39.7,33.1,30.11,WNW,283,7.0,11.0,77,0.00,,,0.01,Wunderground v.1.15,2013-04-16 13:55:00,
2013-04-16 09:00:00,39.8,32.8,30.10,West,272,3.0,11.0,76,0.00,,,0.01,Wunderground v.1.15,2013-04-16 14:00:00,
2013-04-16 09:05:00,39.9,32.9,30.11,West,276,9.0,11.0,76,0.00,,,0.01,Wunderground v.1.15,2013-04-16 14:05:00,
2013-04-16 09:10:00,39.8,32.5,30.11,WNW,288,7.0,11.0,75,0.00,,,0.01,Wunderground v.1.15,2013-04-16 14:10:00,
2013-04-16 09:15:00,39.9,32.9,30.11,West,263,10.0,10.0,76,0.00,,,0.01,Wunderground v.1.15,2013-04-16 14:15:00,
2013-04-16 09:20:00,40.0,33.4,30.11,WSW,255,10.0,12.0,77,0.00,,,0.01,Wunderground v.1.15,2013-04-16 14:20:00,
2013-04-16 09:25:00,40.4,33.4,30.11,West,280,4.0,11.0,76,0.00,,,0.01,Wunderground v.1.15,2013-04-16 14:25:00,
2013-04-16 09:30:00,40.4,33.1,30.11,NW,312,6.0,12.0,75,0.00,,,0.01,Wunderground v.1.15,2013-04-16 14:30:00,
2013-04-16 09:35:00,40.8,33.2,30.11,West,262,6.0,9.0,74,0.00,,,0.01,Wunderground v.1.15,2013-04-16 14:35:00,
2013-04-16 09:40:00,40.8,33.5,30.11,WNW,286,5.0,12.0,75,0.00,,,0.01,Wunderground v.1.15,2013-04-16 14:40:00,
2013-04-16 09:45:00,40.8,32.8,30.11,WNW,295,4.0,11.0,73,0.00,,,0.01,Wunderground v.1.15,2013-04-16 14:45:00,
2013-04-16 09:50:00,41.1,33.4,30.12,WNW,287,6.0,14.0,74,0.00,,,0.01,Wunderground v.1.15,2013-04-16 14:50:00,
2013-04-16 09:55:00,41.1,33.4,30.12,West,264,11.0,12.0,74,0.00,,,0.01,Wunderground v.1.15,2013-04-16 14:55:00,
2013-04-16 10:00:00,41.4,34.4,30.12,NW,309,2.0,12.0,76,0.00,,,0.01,Wunderground v.1.15,2013-04-16 15:00:00,
2013-04-16 10:05:00,41.9,33.5,30.12,West,274,8.0,10.0,72,0.00,,,0.01,Wunderground v.1.15,2013-04-16 15:05:00,
2013-04-16 10:10:00,41.6,33.6,30.12,WSW,245,7.0,11.0,73,0.00,,,0.01,Wunderground v.1.15,2013-04-16 15:10:00,
2013-04-16 10:15:00,41.9,33.9,30.12,West,265,7.0,11.0,73,0.00,,,0.01,Wunderground v.1.15,2013-04-16 15:15:00,
2013-04-16 10:20:00,42.3,33.9,30.12,North,356,8.0,11.0,72,0.00,,,0.01,Wunderground v.1.15,2013-04-16 15:20:00,
2013-04-16 10:25:00,42.0,34.0,30.12,WNW,290,5.0,14.0,73,0.00,,,0.01,Wunderground v.1.15,2013-04-16 15:25:00,
2013-04-16 10:30:00,42.2,34.2,30.12,WSW,255,9.0,14.0,73,0.00,,,0.01,Wunderground v.1.15,2013-04-16 15:30:00,
2013-04-16 10:35:00,42.3,33.6,30.13,West,273,6.0,10.0,71,0.00,,,0.01,Wunderground v.1.15,2013-04-16 15:35:00,
2013-04-16 10:40:00,43.1,34.3,30.13,West,264,11.0,15.0,71,0.00,,,0.01,Wunderground v.1.15,2013-04-16 15:40:00,
2013-04-16 10:45:00,43.2,34.4,30.13,West,267,9.0,14.0,71,0.00,,,0.01,Wunderground v.1.15,2013-04-16 15:45:00,
2013-04-16 10:50:00,43.3,34.2,30.13,WSW,257,6.0,14.0,70,0.00,,,0.01,Wunderground v.1.15,2013-04-16 15:50:00,
2013-04-16 10:55:00,43.5,34.0,30.13,WNW,292,3.0,11.0,69,0.00,,,0.01,Wunderground v.1.15,2013-04-16 15:55:00,
2013-04-16 11:00:00,43.7,34.2,30.13,WNW,290,5.0,15.0,69,0.00,,,0.01,Wunderground v.1.15,2013-04-16 16:00:00,
2013-04-16 11:05:00,43.9,34.4,30.13,West,260,12.0,14.0,69,0.00,,,0.01,Wunderground v.1.15,2013-04-16 16:05:00,
2013-04-16 11:10:00,44.2,35.0,30.13,WSW,252,13.0,14.0,70,0.00,,,0.01,Wunderground v.1.15,2013-04-16 16:10:00,
2013-04-16 11:15:00,44.5,35.0,30.13,West,263,7.0,11.0,69,0.00,,,0.01,Wunderground v.1.15,2013-04-16 16:15:00,
2013-04-16 11:20:00,44.9,35.0,30.14,WSW,256,7.0,13.0,68,0.00,,,0.01,Wunderground v.1.15,2013-04-16 16:20:00,
2013-04-16 11:25:00,45.2,35.6,30.14,West,281,4.0,10.0,69,0.00,,,0.01,Wunderground v.1.15,2013-04-16 16:25:00,
2013-04-16 11:30:00,45.0,35.1,30.15,WNW,283,8.0,11.0,68,0.00,,,0.01,Wunderground v.1.15,2013-04-16 16:30:00,
2013-04-16 11:35:00,45.1,35.2,30.15,WSW,250,9.0,9.0,68,0.00,,,0.01,Wunderground v.1.15,2013-04-16 16:35:00,
2013-04-16 11:40:00,45.3,34.6,30.15,West,269,7.0,13.0,66,0.00,,,0.01,Wunderground v.1.15,2013-04-16 16:40:00,
2013-04-16 11:45:00,45.5,34.8,30.15,WSW,250,6.0,10.0,66,0.00,,,0.01,Wunderground v.1.15,2013-04-16 16:45:00,
2013-04-16 11:50:00,45.3,35.4,30.15,West,269,6.0,14.0,68,0.00,,,0.01,Wunderground v.1.15,2013-04-16 16:50:00,
2013-04-16 11:55:00,45.3,35.0,30.15,West,274,4.0,11.0,67,0.00,,,0.01,Wunderground v.1.15,2013-04-16 16:55:00,
2013-04-16 12:00:00,45.7,35.7,30.16,WSW,253,8.0,15.0,68,0.00,,,0.01,Wunderground v.1.15,2013-04-16 17:00:00,
2013-04-16 12:05:00,45.8,34.7,30.16,WNW,300,4.0,12.0,65,0.00,,,0.01,Wunderground v.1.15,2013-04-16 17:05:00,
2013-04-16 12:10:00,46.1,35.4,30.16,West,278,5.0,12.0,66,0.00,,,0.01,Wunderground v.1.15,2013-04-16 17:10:00,
2013-04-16 12:15:00,46.4,36.4,30.16,West,280,4.0,13.0,68,0.00,,,0.01,Wunderground v.1.15,2013-04-16 17:15:00,
2013-04-16 12:20:00,46.7,36.3,30.16,WSW,256,5.0,13.0,67,0.00,,,0.01,Wunderground v.1.15,2013-04-16 17:20:00,
2013-04-16 12:25:00,46.7,35.6,30.16,West,260,4.0,11.0,65,0.00,,,0.01,Wunderground v.1.15,2013-04-16 17:25:00,
2013-04-16 12:30:00,46.8,35.6,30.16,WSW,255,11.0,14.0,65,0.00,,,0.01,Wunderground v.1.15,2013-04-16 17:30:00,
2013-04-16 12:35:00,46.9,35.4,30.15,West,274,9.0,16.0,64,0.00,,,0.01,Wunderground v.1.15,2013-04-16 17:35:00,
2013-04-16 12:40:00,47.3,35.7,30.15,WSW,257,8.0,16.0,64,0.00,,,0.01,Wunderground v.1.15,2013-04-16 17:40:00,
2013-04-16 12:45:00,47.5,36.7,30.16,West,261,6.0,9.0,66,0.00,,,0.01,Wunderground v.1.15,2013-04-16 17:45:00,
2013-04-16 12:50:00,47.9,37.5,30.16,WSW,247,9.0,14.0,67,0.00,,,0.01,Wunderground v.1.15,2013-04-16 17:50:00,
2013-04-16 12:55:00,48.2,36.6,30.16,West,262,6.0,11.0,64,0.00,,,0.01,Wunderground v.1.15,2013-04-16 17:55:00,
2013-04-16 13:00:00,48.5,36.9,30.15,WSW,248,7.0,13.0,64,0.00,,,0.01,Wunderground v.1.15,2013-04-16 18:00:00,
2013-04-16 13:05:00,48.6,35.7,30.15,WNW,302,6.0,12.0,61,0.00,,,0.01,Wunderground v.1.15,2013-04-16 18:05:00,
2013-04-16 13:10:00,48.5,35.2,30.15,WSW,256,11.0,12.0,60,0.00,,,0.01,Wunderground v.1.15,2013-04-16 18:10:00,
2013-04-16 13:15:00,48.8,36.4,30.15,NW,311,2.0,14.0,62,0.00,,,0.01,Wunderground v.1.15,2013-04-16 18:15:00,
2013-04-16 13:20:00,49.0,36.5,30.15,WNW,295,6.0,14.0,62,0.00,,,0.01,Wunderground v.1.15,2013-04-16 18:20:00,
2013-04-16 13:25:00,49.2,35.5,30.15,WNW,293,7.0,12.0,59,0.00,,,0.01,Wunderground v.1.15,2013-04-16 18:25:00,
2013-04-16 13:30:00,49.3,36.4,30.16,NNW,338,6.0,12.0,61,0.00,,,0.01,Wunderground v.1.15,2013-04-16 18:30:00,
2013-04-16 13:35:00,49.5,36.6,30.16,West,262,9.0,14.0,61,0.00,,,0.01,Wunderground v.1.15,2013-04-16 18:35:00,
2013-04-16 13:40:00,49.7,36.4,30.16,WNW,301,9.0,14.0,60,0.00,,,0.01,Wunderground v.1.15,2013-04-16 18:40:00,
2013-04-16 13:45:00,49.9,37.0,30.15,WSW,251,6.0,14.0,61,0.00,,,0.01,Wunderground v.1.15,2013-04-16 18:45:00,
2013-04-16 13:50:00,50.4,37.4,30.15,West,271,8.0,14.0,61,0.00,,,0.01,Wunderground v.1.15,2013-04-16 18:50:00,
2013-04-16 13:55:00,50.2,35.5,30.15,WNW,283,13.0,14.0,57,0.00,,,0.01,Wunderground v.1.15,2013-04-16 18:55:00,
2013-04-16 14:00:00,49.9,35.7,30.16,West,276,4.0,14.0,58,0.00,,,0.01,Wunderground v.1.15,2013-04-16 19:00:00,
2013-04-16 14:05:00,49.9,36.1,30.16,West,267,7.0,19.0,59,0.00,,,0.01,Wunderground v.1.15,2013-04-16 19:05:00,
2013-04-16 14:10:00,49.9,36.1,30.16,West,274,7.0,19.0,59,0.00,,,0.01,Wunderground v.1.15,2013-04-16 19:10:00,
2013-04-16 14:15:00,49.9,36.6,30.16,West,274,6.0,12.0,60,0.00,,,0.01,Wunderground v.1.15,2013-04-16 19:15:00,
2013-04-16 14:20:00,50.4,36.2,30.16,West,281,5.0,12.0,58,0.00,,,0.01,Wunderground v.1.15,2013-04-16 19:20:00,
2013-04-16 14:25:00,50.9,36.6,30.16,WSW,251,8.0,9.0,58,0.00,,,0.01,Wunderground v.1.15,2013-04-16 19:25:00,
2013-04-16 14:30:00,50.9,36.6,30.16,NNW,338,5.0,10.0,58,0.00,,,0.01,Wunderground v.1.15,2013-04-16 19:30:00,
2013-04-16 14:35:00,50.7,36.9,30.16,West,273,5.0,10.0,59,0.00,,,0.01,Wunderground v.1.15,2013-04-16 19:35:00,
2013-04-16 14:40:00,51.0,36.7,30.16,NNW,341,4.0,10.0,58,0.00,,,0.01,Wunderground v.1.15,2013-04-16 19:40:00,
2013-04-16 14:45:00,51.1,36.4,30.16,West,276,7.0,11.0,57,0.00,,,0.01,Wunderground v.1.15,2013-04-16 19:45:00,
2013-04-16 14:50:00,51.2,37.4,30.16,WSW,253,6.0,11.0,59,0.00,,,0.01,Wunderground v.1.15,2013-04-16 19:50:00,
2013-04-16 14:55:00,51.3,36.1,30.16,WSW,246,4.0,10.0,56,0.00,,,0.01,Wunderground v.1.15,2013-04-16 19:55:00,
2013-04-16 15:00:00,51.3,37.0,30.17,West,260,6.0,13.0,58,0.00,,,0.01,Wunderground v.1.15,2013-04-16 20:00:00,
2013-04-16 15:05:00,51.4,35.8,30.17,West,261,5.0,13.0,55,0.00,,,0.01,Wunderground v.1.15,2013-04-16 20:05:00,
2013-04-16 15:10:00,51.4,35.3,30.17,West,262,5.0,13.0,54,0.00,,,0.01,Wunderground v.1.15,2013-04-16 20:10:00,
2013-04-16 15:15:00,51.3,36.1,30.17,West,271,6.0,8.0,56,0.00,,,0.01,Wunderground v.1.15,2013-04-16 20:15:00,
2013-04-16 15:20:00,51.5,35.4,30.17,West,267,4.0,11.0,54,0.00,,,0.01,Wunderground v.1.15,2013-04-16 20:20:00,
2013-04-16 15:25:00,51.5,37.2,30.17,WNW,301,2.0,6.0,58,0.00,,,0.01,Wunderground v.1.15,2013-04-16 20:25:00,
2013-04-16 15:30:00,52.0,36.8,30.17,WNW,290,5.0,8.0,56,0.00,,,0.01,Wunderground v.1.15,2013-04-16 20:30:00,
2013-04-16 15:35:00,51.6,35.9,30.17,WNW,283,6.0,8.0,55,0.00,,,0.01,Wunderground v.1.15,2013-04-16 20:35:00,
2013-04-16 15:40:00,51.7,36.5,30.18,West,274,4.0,8.0,56,0.00,,,0.01,Wunderground v.1.15,2013-04-16 20:40:00,
2013-04-16 15:45:00,52.2,37.0,30.18,WNW,297,8.0,9.0,56,0.00,,,0.01,Wunderground v.1.15,2013-04-16 20:45:00,
2013-04-16 15:50:00,52.0,36.3,30.18,West,263,1.0,9.0,55,0.00,,,0.01,Wunderground v.1.15,2013-04-16 20:50:00,
2013-04-16 15:55:00,52.1,36.9,30.18,West,267,1.0,7.0,56,0.00,,,0.01,Wunderground v.1.15,2013-04-16 20:55:00,
2013-04-16 16:00:00,52.4,37.6,30.18,WSW,256,5.0,8.0,57,0.00,,,0.01,Wunderground v.1.15,2013-04-16 21:00:00,
2013-04-16 16:05:00,52.6,38.7,30.19,NNW,338,6.0,10.0,59,0.00,,,0.01,Wunderground v.1.15,2013-04-16 21:05:00,
2013-04-16 16:10:00,52.9,38.5,30.19,WNW,295,6.0,10.0,58,0.00,,,0.01,Wunderground v.1.15,2013-04-16 21:10:00,
2013-04-16 16:15:00,52.4,36.7,30.19,West,259,4.0,10.0,55,0.00,,,0.01,Wunderground v.1.15,2013-04-16 21:15:00,
2013-04-16 16:20:00,52.3,36.1,30.19,NNW,348,5.0,10.0,54,0.00,,,0.01,Wunderground v.1.15,2013-04-16 21:20:00,
2013-04-16 16:25:00,52.2,35.1,30.19,WSW,255,9.0,9.0,52,0.00,,,0.01,Wunderground v.1.15,2013-04-16 21:25:00,
2013-04-16 16:30:00,52.1,35.9,30.19,WSW,255,3.0,11.0,54,0.00,,,0.01,Wunderground v.1.15,2013-04-16 21:30:00,
2013-04-16 16:35:00,52.2,36.5,30.19,NNW,333,2.0,5.0,55,0.00,,,0.01,Wunderground v.1.15,2013-04-16 21:35:00,
2013-04-16 16:40:00,52.2,36.5,30.18,WNW,295,0.0,6.0,55,0.00,,,0.01,Wunderground v.1.15,2013-04-16 21:40:00,
2013-04-16 16:45:00,52.5,36.8,30.19,WNW,302,1.0,6.0,55,0.00,,,0.01,Wunderground v.1.15,2013-04-16 21:45:00,
2013-04-16 16:50:00,52.4,36.7,30.19,WSW,248,4.0,8.0,55,0.00,,,0.01,Wunderground v.1.15,2013-04-16 21:50:00,
2013-04-16 16:55:00,52.1,36.4,30.19,NNW,342,6.0,7.0,55,0.00,,,0.01,Wunderground v.1.15,2013-04-16 21:55:00,
2013-04-16 17:00:00,52.0,36.3,30.19,NNW,338,3.0,7.0,55,0.00,,,0.01,Wunderground v.1.15,2013-04-16 22:00:00,
2013-04-16 17:05:00,51.8,35.2,30.19,East,79,4.0,7.0,53,0.00,,,0.01,Wunderground v.1.15,2013-04-16 22:05:00,
2013-04-16 17:10:00,52.1,35.9,30.19,ENE,71,5.0,7.0,54,0.00,,,0.01,Wunderground v.1.15,2013-04-16 22:10:00,
2013-04-16 17:15:00,52.0,34.9,30.20,WSW,257,2.0,7.0,52,0.00,,,0.01,Wunderground v.1.15,2013-04-16 22:15:00,
2013-04-16 17:20:00,51.9,34.8,30.20,NNE,32,4.0,7.0,52,0.00,,,0.01,Wunderground v.1.15,2013-04-16 22:20:00,
2013-04-16 17:25:00,52.0,35.4,30.20,East,89,1.0,3.0,53,0.00,,,0.01,Wunderground v.1.15,2013-04-16 22:25:00,
2013-04-16 17:30:00,52.3,35.2,30.20,ENE,67,3.0,4.0,52,0.00,,,0.01,Wunderground v.1.15,2013-04-16 22:30:00,
2013-04-16 17:35:00,52.3,35.7,30.20,NNW,333,1.0,4.0,53,0.00,,,0.01,Wunderground v.1.15,2013-04-16 22:35:00,
2013-04-16 17:40:00,52.2,35.6,30.21,NNW,332,1.0,6.0,53,0.00,,,0.01,Wunderground v.1.15,2013-04-16 22:40:00,
2013-04-16 17:45:00,52.0,35.9,30.21,ENE,61,1.0,5.0,54,0.00,,,0.01,Wunderground v.1.15,2013-04-16 22:45:00,
2013-04-16 17:50:00,51.9,36.2,30.21,NE,56,1.0,5.0,55,0.00,,,0.01,Wunderground v.1.15,2013-04-16 22:50:00,
2013-04-16 17:55:00,52.2,37.0,30.21,East,85,1.0,4.0,56,0.00,,,0.01,Wunderground v.1.15,2013-04-16 22:55:00,
2013-04-16 18:00:00,52.3,36.6,30.21,ENE,58,0.0,4.0,55,0.00,,,0.01,Wunderground v.1.15,2013-04-16 23:00:00,
2013-04-16 18:05:00,52.2,36.5,30.20,WNW,286,2.0,4.0,55,0.00,,,0.01,Wunderground v.1.15,2013-04-16 23:05:00,
2013-04-16 18:10:00,52.3,36.6,30.21,NNW,335,5.0,5.0,55,0.00,,,0.01,Wunderground v.1.15,2013-04-16 23:10:00,
2013-04-16 18:15:00,52.1,36.4,30.22,ENE,67,6.0,6.0,55,0.00,,,0.01,Wunderground v.1.15,2013-04-16 23:15:00,
2013-04-16 18:20:00,50.8,37.4,30.21,ENE,76,3.0,7.0,60,0.00,,,0.01,Wunderground v.1.15,2013-04-16 23:20:00,
2013-04-16 18:25:00,49.6,36.7,30.22,East,84,3.0,8.0,61,0.00,,,0.01,Wunderground v.1.15,2013-04-16 23:25:00,
2013-04-16 18:30:00,48.8,36.4,30.22,ENE,63,4.0,8.0,62,0.00,,,0.01,Wunderground v.1.15,2013-04-16 23:30:00,
2013-04-16 18:35:00,48.1,36.1,30.22,ENE,72,3.0,9.0,63,0.00,,,0.01,Wunderground v.1.15,2013-04-16 23:35:00,
2013-04-16 18:40:00,47.5,35.5,30.22,East,89,3.0,9.0,63,0.00,,,0.01,Wunderground v.1.15,2013-04-16 23:40:00,
2013-04-16 18:45:00,47.1,35.5,30.22,ENE,67,5.0,9.0,64,0.00,,,0.01,Wunderground v.1.15,2013-04-16 23:45:00,
2013-04-16 18:50:00,46.7,35.6,30.22,ENE,68,3.0,9.0,65,0.00,,,0.01,Wunderground v.1.15,2013-04-16 23:50:00,
2013-04-16 18:55:00,46.3,35.6,30.22,ENE,73,3.0,7.0,66,0.00,,,0.01,Wunderground v.1.15,2013-04-16 23:55:00,
2013-04-16 19:00:00,46.3,35.6,30.22,ENE,75,6.0,7.0,66,0.00,,,0.01,Wunderground v.1.15,2013-04-17 00:00:00,
2013-04-16 19:05:00,46.0,35.7,30.23,ENE,75,5.0,6.0,67,0.00,,,0.01,Wunderground v.1.15,2013-04-17 00:05:00,
2013-04-16 19:10:00,45.8,35.5,30.22,ENE,72,4.0,6.0,67,0.00,,,0.01,Wunderground v.1.15,2013-04-17 00:10:00,
2013-04-16 19:15:00,45.5,35.2,30.22,ENE,63,4.0,6.0,67,0.00,,,0.01,Wunderground v.1.15,2013-04-17 00:15:00,
2013-04-16 19:20:00,45.1,35.2,30.23,ENE,74,4.0,6.0,68,0.00,,,0.01,Wunderground v.1.15,2013-04-17 00:20:00,
2013-04-16 19:25:00,44.9,35.0,30.23,East,88,5.0,6.0,68,0.00,,,0.01,Wunderground v.1.15,2013-04-17 00:25:00,
2013-04-16 19:30:00,44.6,35.1,30.23,ENE,59,2.0,6.0,69,0.00,,,0.01,Wunderground v.1.15,2013-04-17 00:30:00,
2013-04-16 19:35:00,44.3,35.1,30.24,East,81,2.0,5.0,70,0.00,,,0.01,Wunderground v.1.15,2013-04-17 00:35:00,
2013-04-16 19:40:00,44.0,34.8,30.24,ENE,67,4.0,5.0,70,0.00,,,0.01,Wunderground v.1.15,2013-04-17 00:40:00,
2013-04-16 19:45:00,43.8,34.6,30.24,ENE,63,2.0,5.0,70,0.00,,,0.01,Wunderground v.1.15,2013-04-17 00:45:00,
2013-04-16 19:50:00,43.6,34.8,30.24,East,86,4.0,5.0,71,0.00,,,0.01,Wunderground v.1.15,2013-04-17 00:50:00,
2013-04-16 19:55:00,43.3,34.5,30.25,ENE,75,2.0,6.0,71,0.00,,,0.01,Wunderground v.1.15,2013-04-17 00:55:00,
2013-04-16 20:01:00,43.2,34.4,30.25,ENE,67,2.0,6.0,71,0.00,,,0.01,Wunderground v.1.15,2013-04-17 01:01:00,
2013-04-16 20:06:00,42.9,34.1,30.25,ENE,71,4.0,5.0,71,0.00,,,0.01,Wunderground v.1.15,2013-04-17 01:06:00,
2013-04-16 20:11:00,42.7,34.3,30.25,ENE,68,3.0,5.0,72,0.00,,,0.01,Wunderground v.1.15,2013-04-17 01:11:00,
2013-04-16 20:16:00,42.5,34.1,30.25,ENE,68,2.0,5.0,72,0.00,,,0.01,Wunderground v.1.15,2013-04-17 01:16:00,
2013-04-16 20:21:00,42.4,34.0,30.26,East,97,1.0,5.0,72,0.00,,,0.01,Wunderground v.1.15,2013-04-17 01:21:00,
2013-04-16 20:26:00,42.3,33.9,30.26,East,90,4.0,6.0,72,0.00,,,0.01,Wunderground v.1.15,2013-04-17 01:26:00,
2013-04-16 20:31:00,42.2,34.2,30.26,ENE,63,3.0,6.0,73,0.00,,,0.01,Wunderground v.1.15,2013-04-17 01:31:00,
2013-04-16 20:36:00,42.1,34.1,30.26,ENE,75,2.0,7.0,73,0.00,,,0.01,Wunderground v.1.15,2013-04-17 01:36:00,
2013-04-16 20:41:00,41.9,33.9,30.26,ENE,67,2.0,7.0,73,0.00,,,0.01,Wunderground v.1.15,2013-04-17 01:41:00,
2013-04-16 20:46:00,41.8,33.8,30.27,East,86,2.0,5.0,73,0.00,,,0.01,Wunderground v.1.15,2013-04-17 01:46:00,
2013-04-16 20:51:00,41.7,33.7,30.27,East,96,1.0,3.0,73,0.00,,,0.01,Wunderground v.1.15,2013-04-17 01:51:00,
2013-04-16 20:56:00,41.5,33.5,30.26,East,86,0.0,3.0,73,0.00,,,0.01,Wunderground v.1.15,2013-04-17 01:56:00,
2013-04-16 21:01:00,41.4,33.7,30.27,ENE,70,0.0,0.0,74,0.00,,,0.01,Wunderground v.1.15,2013-04-17 02:01:00,
2013-04-16 21:06:00,41.3,33.6,30.27,East,92,0.0,0.0,74,0.00,,,0.01,Wunderground v.1.15,2013-04-17 02:06:00,
2013-04-16 21:11:00,41.2,33.5,30.27,East,80,0.0,0.0,74,0.00,,,0.01,Wunderground v.1.15,2013-04-17 02:11:00,
2013-04-16 21:16:00,41.1,33.4,30.27,ENE,63,2.0,4.0,74,0.00,,,0.01,Wunderground v.1.15,2013-04-17 02:16:00,
2013-04-16 21:22:00,41.0,33.7,30.28,East,81,2.0,2.0,75,0.00,,,0.01,Wunderground v.1.15,2013-04-17 02:22:00,
2013-04-16 21:27:00,40.8,33.2,30.28,ENE,73,3.0,6.0,74,0.00,,,0.01,Wunderground v.1.15,2013-04-17 02:27:00,
2013-04-16 21:32:00,40.6,33.0,30.28,East,84,3.0,5.0,74,0.00,,,0.01,Wunderground v.1.15,2013-04-17 02:32:00,
2013-04-16 21:37:00,40.4,33.1,30.28,ENE,75,2.0,5.0,75,0.00,,,0.01,Wunderground v.1.15,2013-04-17 02:37:00,
2013-04-16 21:42:00,40.2,33.2,30.28,East,81,4.0,4.0,76,0.00,,,0.01,Wunderground v.1.15,2013-04-17 02:42:00,
2013-04-16 21:47:00,40.0,33.0,30.28,ENE,72,3.0,4.0,76,0.00,,,0.01,Wunderground v.1.15,2013-04-17 02:47:00,
2013-04-16 21:52:00,39.8,32.8,30.29,ENE,67,1.0,2.0,76,0.00,,,0.01,Wunderground v.1.15,2013-04-17 02:52:00,
2013-04-16 21:57:00,39.7,33.1,30.28,East,85,2.0,2.0,77,0.00,,,0.01,Wunderground v.1.15,2013-04-17 02:57:00,
2013-04-16 22:02:00,39.5,32.9,30.28,ENE,67,4.0,4.0,77,0.00,,,0.01,Wunderground v.1.15,2013-04-17 03:02:00,
2013-04-16 22:07:00,39.5,32.9,30.29,ENE,57,2.0,4.0,77,0.00,,,0.01,Wunderground v.1.15,2013-04-17 03:07:00,
2013-04-16 22:12:00,39.5,33.2,30.29,East,82,1.0,2.0,78,0.00,,,0.01,Wunderground v.1.15,2013-04-17 03:12:00,
2013-04-16 22:17:00,39.5,33.2,30.28,ENE,68,2.0,5.0,78,0.00,,,0.01,Wunderground v.1.15,2013-04-17 03:17:00,
2013-04-16 22:22:00,39.5,33.2,30.29,ENE,77,3.0,3.0,78,0.00,,,0.01,Wunderground v.1.15,2013-04-17 03:22:00,
2013-04-16 22:27:00,39.6,33.3,30.29,East,84,1.0,3.0,78,0.00,,,0.01,Wunderground v.1.15,2013-04-17 03:27:00,
2013-04-16 22:32:00,39.6,33.3,30.29,ENE,77,1.0,2.0,78,0.00,,,0.01,Wunderground v.1.15,2013-04-17 03:32:00,
2013-04-16 22:37:00,39.6,33.3,30.29,East,82,0.0,2.0,78,0.00,,,0.01,Wunderground v.1.15,2013-04-17 03:37:00,
2013-04-16 22:42:00,39.6,33.3,30.29,ENE,77,0.0,0.0,78,0.00,,,0.01,Wunderground v.1.15,2013-04-17 03:42:00,
2013-04-16 22:47:00,39.5,33.2,30.29,ENE,70,0.0,0.0,78,0.00,,,0.01,Wunderground v.1.15,2013-04-17 03:47:00,
2013-04-16 22:52:00,39.4,33.1,30.29,NE,46,0.0,0.0,78,0.00,,,0.01,Wunderground v.1.15,2013-04-17 03:52:00,
2013-04-16 22:57:00,39.3,33.3,30.29,NE,46,0.0,0.0,79,0.00,,,0.01,Wunderground v.1.15,2013-04-17 03:57:00,
2013-04-16 23:00:00,39.3,33.3,30.30,NE,46,0.0,0.0,79,0.00,,,0.01,Wunderground v.1.15,2013-04-17 04:00:00,
2013-04-16 23:05:00,39.2,33.2,30.30,NE,46,0.0,0.0,79,0.00,,,0.01,Wunderground v.1.15,2013-04-17 04:05:00,
2013-04-16 23:10:00,39.1,33.1,30.30,NE,46,0.0,0.0,79,0.00,,,0.01,Wunderground v.1.15,2013-04-17 04:10:00,
2013-04-16 23:15:00,39.1,33.5,30.29,East,81,0.0,0.0,80,0.00,,,0.01,Wunderground v.1.15,2013-04-17 04:15:00,
2013-04-16 23:20:00,39.2,33.2,30.29,East,81,0.0,0.0,79,0.00,,,0.01,Wunderground v.1.15,2013-04-17 04:20:00,
2013-04-16 23:25:00,39.3,33.3,30.29,ENE,57,0.0,0.0,79,0.00,,,0.01,Wunderground v.1.15,2013-04-17 04:25:00,
2013-04-16 23:30:00,39.4,33.4,30.30,ENE,57,0.0,0.0,79,0.00,,,0.01,Wunderground v.1.15,2013-04-17 04:30:00,
2013-04-16 23:35:00,39.3,33.3,30.30,NE,56,0.0,0.0,79,0.00,,,0.01,Wunderground v.1.15,2013-04-17 04:35:00,
2013-04-16 23:40:00,39.3,33.3,30.30,ENE,57,0.0,0.0,79,0.00,,,0.01,Wunderground v.1.15,2013-04-17 04:40:00,
2013-04-16 23:45:00,39.2,33.2,30.30,ENE,57,0.0,0.0,79,0.00,,,0.01,Wunderground v.1.15,2013-04-17 04:45:00,
2013-04-16 23:50:00,39.2,33.5,30.30,ENE,57,0.0,0.0,80,0.00,,,0.01,Wunderground v.1.15,2013-04-17 04:50:00,
2013-04-16 23:55:00,39.2,33.2,30.29,NE,56,0.0,0.0,79,0.00,,,0.01,Wunderground v.1.15,2013-04-17 04:55:00,